sensor_id;sensor_type;location;lat;lon;timestamp;P1;durP1;ratioP1;P2;durP2;ratioP2
11735;SDS011;5924;51.398;7.088;2022-08-24T00:01:08;3.40;;;3.30;;
11735;SDS011;5924;51.398;7.088;2022-08-24T00:03:35;3.77;;;3.57;;
11735;SDS011;5924;51.398;7.088;2022-08-24T00:06:02;3.37;;;3.37;;
11735;SDS011;5924;51.398;7.088;2022-08-24T00:08:29;3.30;;;3.20;;
11735;SDS011;5924;51.398;7.088;2022-08-24T00:10:55;3.27;;;3.17;;
11735;SDS011;5924;51.398;7.088;2022-08-24T00:13:21;3.57;;;3.47;;
11735;SDS011;5924;51.398;7.088;2022-08-24T00:15:47;2.93;;;2.93;;
11735;SDS011;5924;51.398;7.088;2022-08-24T00:18:12;3.60;;;3.50;;
11735;SDS011;5924;51.398;7.088;2022-08-24T00:20:38;3.70;;;3.60;;
11735;SDS011;5924;51.398;7.088;2022-08-24T00:23:05;3.63;;;3.43;;
11735;SDS011;5924;51.398;7.088;2022-08-24T00:25:31;5.43;;;3.80;;
11735;SDS011;5924;51.398;7.088;2022-08-24T00:27:57;3.40;;;3.20;;
11735;SDS011;5924;51.398;7.088;2022-08-24T00:30:24;3.70;;;3.60;;
11735;SDS011;5924;51.398;7.088;2022-08-24T00:32:50;3.13;;;3.03;;
11735;SDS011;5924;51.398;7.088;2022-08-24T00:35:16;3.70;;;3.50;;
11735;SDS011;5924;51.398;7.088;2022-08-24T00:37:44;3.40;;;3.40;;
11735;SDS011;5924;51.398;7.088;2022-08-24T00:40:12;3.87;;;3.70;;
11735;SDS011;5924;51.398;7.088;2022-08-24T00:42:43;4.17;;;3.97;;
11735;SDS011;5924;51.398;7.088;2022-08-24T00:45:10;3.90;;;3.70;;
11735;SDS011;5924;51.398;7.088;2022-08-24T00:51:25;3.50;;;3.40;;
11735;SDS011;5924;51.398;7.088;2022-08-24T00:55:57;3.03;;;2.93;;
11735;SDS011;5924;51.398;7.088;2022-08-24T00:58:40;3.83;;;3.63;;
11735;SDS011;5924;51.398;7.088;2022-08-24T01:01:10;4.00;;;3.63;;
11735;SDS011;5924;51.398;7.088;2022-08-24T01:03:38;3.87;;;3.67;;
11735;SDS011;5924;51.398;7.088;2022-08-24T01:06:06;3.73;;;3.63;;
11735;SDS011;5924;51.398;7.088;2022-08-24T01:08:33;3.70;;;3.50;;
11735;SDS011;5924;51.398;7.088;2022-08-24T01:11:13;3.90;;;3.77;;
11735;SDS011;5924;51.398;7.088;2022-08-24T01:13:42;3.70;;;3.50;;
11735;SDS011;5924;51.398;7.088;2022-08-24T01:16:11;3.40;;;3.27;;
11735;SDS011;5924;51.398;7.088;2022-08-24T01:18:39;4.27;;;3.30;;
11735;SDS011;5924;51.398;7.088;2022-08-24T01:23:42;5.53;;;3.47;;
11735;SDS011;5924;51.398;7.088;2022-08-24T01:26:27;3.70;;;3.50;;
11735;SDS011;5924;51.398;7.088;2022-08-24T01:29:06;6.77;;;3.50;;
11735;SDS011;5924;51.398;7.088;2022-08-24T01:31:37;3.90;;;3.80;;
11735;SDS011;5924;51.398;7.088;2022-08-24T01:34:04;3.80;;;3.70;;
11735;SDS011;5924;51.398;7.088;2022-08-24T01:36:32;3.63;;;3.53;;
11735;SDS011;5924;51.398;7.088;2022-08-24T01:39:10;3.60;;;3.50;;
11735;SDS011;5924;51.398;7.088;2022-08-24T01:41:40;4.40;;;4.30;;
11735;SDS011;5924;51.398;7.088;2022-08-24T01:44:06;3.47;;;3.37;;
11735;SDS011;5924;51.398;7.088;2022-08-24T01:46:33;7.07;;;4.10;;
11735;SDS011;5924;51.398;7.088;2022-08-24T01:48:59;3.83;;;3.37;;
11735;SDS011;5924;51.398;7.088;2022-08-24T01:51:28;3.97;;;3.67;;
11735;SDS011;5924;51.398;7.088;2022-08-24T01:53:55;3.53;;;3.43;;
11735;SDS011;5924;51.398;7.088;2022-08-24T01:56:22;3.63;;;3.63;;
11735;SDS011;5924;51.398;7.088;2022-08-24T01:58:48;3.43;;;3.33;;
11735;SDS011;5924;51.398;7.088;2022-08-24T02:01:14;3.60;;;3.40;;
11735;SDS011;5924;51.398;7.088;2022-08-24T02:03:41;3.43;;;3.30;;
11735;SDS011;5924;51.398;7.088;2022-08-24T02:06:07;3.57;;;3.37;;
11735;SDS011;5924;51.398;7.088;2022-08-24T02:08:33;3.27;;;3.13;;
11735;SDS011;5924;51.398;7.088;2022-08-24T02:11:00;4.00;;;3.90;;
11735;SDS011;5924;51.398;7.088;2022-08-24T02:13:32;4.23;;;4.10;;
11735;SDS011;5924;51.398;7.088;2022-08-24T02:15:59;3.83;;;3.63;;
11735;SDS011;5924;51.398;7.088;2022-08-24T02:18:25;4.30;;;4.10;;
11735;SDS011;5924;51.398;7.088;2022-08-24T02:20:50;4.23;;;4.03;;
11735;SDS011;5924;51.398;7.088;2022-08-24T02:23:17;4.40;;;4.10;;
11735;SDS011;5924;51.398;7.088;2022-08-24T02:25:44;4.33;;;4.07;;
11735;SDS011;5924;51.398;7.088;2022-08-24T02:28:10;5.00;;;4.53;;
11735;SDS011;5924;51.398;7.088;2022-08-24T02:30:36;5.07;;;4.60;;
11735;SDS011;5924;51.398;7.088;2022-08-24T02:33:04;4.30;;;4.00;;
11735;SDS011;5924;51.398;7.088;2022-08-24T02:35:32;4.67;;;4.50;;
11735;SDS011;5924;51.398;7.088;2022-08-24T02:37:58;3.80;;;3.60;;
11735;SDS011;5924;51.398;7.088;2022-08-24T02:40:23;3.83;;;3.73;;
11735;SDS011;5924;51.398;7.088;2022-08-24T02:42:49;3.70;;;3.60;;
11735;SDS011;5924;51.398;7.088;2022-08-24T02:45:15;4.03;;;3.83;;
11735;SDS011;5924;51.398;7.088;2022-08-24T02:47:42;3.13;;;3.13;;
11735;SDS011;5924;51.398;7.088;2022-08-24T02:50:09;4.10;;;3.90;;
11735;SDS011;5924;51.398;7.088;2022-08-24T02:52:37;4.23;;;4.03;;
11735;SDS011;5924;51.398;7.088;2022-08-24T02:55:08;3.63;;;3.53;;
11735;SDS011;5924;51.398;7.088;2022-08-24T02:57:36;4.30;;;4.10;;
11735;SDS011;5924;51.398;7.088;2022-08-24T03:00:04;3.50;;;3.40;;
11735;SDS011;5924;51.398;7.088;2022-08-24T03:02:32;3.67;;;3.57;;
11735;SDS011;5924;51.398;7.088;2022-08-24T03:04:58;3.90;;;3.70;;
11735;SDS011;5924;51.398;7.088;2022-08-24T03:07:24;4.73;;;4.57;;
11735;SDS011;5924;51.398;7.088;2022-08-24T03:09:49;4.17;;;3.87;;
11735;SDS011;5924;51.398;7.088;2022-08-24T03:12:15;4.27;;;4.07;;
11735;SDS011;5924;51.398;7.088;2022-08-24T03:14:42;4.60;;;4.50;;
11735;SDS011;5924;51.398;7.088;2022-08-24T03:17:07;4.53;;;4.20;;
11735;SDS011;5924;51.398;7.088;2022-08-24T03:19:34;3.87;;;3.77;;
11735;SDS011;5924;51.398;7.088;2022-08-24T03:21:59;4.07;;;3.80;;
11735;SDS011;5924;51.398;7.088;2022-08-24T03:24:25;3.97;;;3.77;;
11735;SDS011;5924;51.398;7.088;2022-08-24T03:26:51;4.73;;;4.53;;
11735;SDS011;5924;51.398;7.088;2022-08-24T03:29:16;4.80;;;4.50;;
11735;SDS011;5924;51.398;7.088;2022-08-24T03:31:42;4.70;;;4.30;;
11735;SDS011;5924;51.398;7.088;2022-08-24T03:34:09;4.50;;;4.20;;
11735;SDS011;5924;51.398;7.088;2022-08-24T03:36:37;6.20;;;4.50;;
11735;SDS011;5924;51.398;7.088;2022-08-24T03:39:04;4.10;;;4.00;;
11735;SDS011;5924;51.398;7.088;2022-08-24T03:41:30;4.27;;;4.00;;
11735;SDS011;5924;51.398;7.088;2022-08-24T03:43:55;3.93;;;3.80;;
11735;SDS011;5924;51.398;7.088;2022-08-24T03:46:22;4.17;;;4.07;;
11735;SDS011;5924;51.398;7.088;2022-08-24T03:48:52;4.60;;;4.30;;
11735;SDS011;5924;51.398;7.088;2022-08-24T03:51:23;4.40;;;4.20;;
11735;SDS011;5924;51.398;7.088;2022-08-24T03:53:50;3.90;;;3.80;;
11735;SDS011;5924;51.398;7.088;2022-08-24T03:56:17;4.53;;;4.43;;
11735;SDS011;5924;51.398;7.088;2022-08-24T03:58:43;4.60;;;4.33;;
11735;SDS011;5924;51.398;7.088;2022-08-24T04:01:10;3.57;;;3.47;;
11735;SDS011;5924;51.398;7.088;2022-08-24T04:03:37;4.13;;;4.00;;
11735;SDS011;5924;51.398;7.088;2022-08-24T04:06:04;3.67;;;3.57;;
11735;SDS011;5924;51.398;7.088;2022-08-24T04:08:31;4.17;;;3.87;;
11735;SDS011;5924;51.398;7.088;2022-08-24T04:10:57;3.77;;;3.57;;
11735;SDS011;5924;51.398;7.088;2022-08-24T04:13:23;4.33;;;4.03;;
11735;SDS011;5924;51.398;7.088;2022-08-24T04:15:49;4.57;;;4.20;;
11735;SDS011;5924;51.398;7.088;2022-08-24T04:18:17;4.50;;;4.20;;
11735;SDS011;5924;51.398;7.088;2022-08-24T04:20:43;3.73;;;3.43;;
11735;SDS011;5924;51.398;7.088;2022-08-24T04:23:10;3.30;;;3.30;;
11735;SDS011;5924;51.398;7.088;2022-08-24T04:25:39;3.87;;;3.77;;
11735;SDS011;5924;51.398;7.088;2022-08-24T04:28:10;4.60;;;4.20;;
11735;SDS011;5924;51.398;7.088;2022-08-24T04:30:41;5.00;;;4.70;;
11735;SDS011;5924;51.398;7.088;2022-08-24T04:33:08;7.57;;;6.20;;
11735;SDS011;5924;51.398;7.088;2022-08-24T04:35:36;7.67;;;6.97;;
11735;SDS011;5924;51.398;7.088;2022-08-24T04:38:03;8.30;;;7.67;;
11735;SDS011;5924;51.398;7.088;2022-08-24T04:40:29;9.50;;;6.77;;
11735;SDS011;5924;51.398;7.088;2022-08-24T04:42:55;16.50;;;8.20;;
11735;SDS011;5924;51.398;7.088;2022-08-24T04:45:23;8.40;;;7.60;;
11735;SDS011;5924;51.398;7.088;2022-08-24T04:47:49;13.63;;;8.07;;
11735;SDS011;5924;51.398;7.088;2022-08-24T04:50:15;11.13;;;7.23;;
11735;SDS011;5924;51.398;7.088;2022-08-24T04:52:40;10.63;;;7.10;;
11735;SDS011;5924;51.398;7.088;2022-08-24T04:55:06;8.80;;;7.80;;
11735;SDS011;5924;51.398;7.088;2022-08-24T04:57:32;8.20;;;7.50;;
11735;SDS011;5924;51.398;7.088;2022-08-24T04:59:58;10.93;;;8.83;;
11735;SDS011;5924;51.398;7.088;2022-08-24T05:02:24;11.47;;;9.90;;
11735;SDS011;5924;51.398;7.088;2022-08-24T05:04:50;10.93;;;9.43;;
11735;SDS011;5924;51.398;7.088;2022-08-24T05:07:16;12.17;;;9.40;;
11735;SDS011;5924;51.398;7.088;2022-08-24T05:09:43;13.40;;;9.93;;
11735;SDS011;5924;51.398;7.088;2022-08-24T05:12:09;8.67;;;7.97;;
11735;SDS011;5924;51.398;7.088;2022-08-24T05:14:35;9.83;;;7.43;;
11735;SDS011;5924;51.398;7.088;2022-08-24T05:17:01;6.50;;;6.00;;
11735;SDS011;5924;51.398;7.088;2022-08-24T05:19:27;6.67;;;6.07;;
11735;SDS011;5924;51.398;7.088;2022-08-24T05:21:53;5.80;;;5.40;;
11735;SDS011;5924;51.398;7.088;2022-08-24T05:24:19;5.40;;;5.20;;
11735;SDS011;5924;51.398;7.088;2022-08-24T05:26:45;5.17;;;4.97;;
11735;SDS011;5924;51.398;7.088;2022-08-24T05:29:10;5.07;;;4.87;;
11735;SDS011;5924;51.398;7.088;2022-08-24T05:31:36;5.10;;;4.90;;
11735;SDS011;5924;51.398;7.088;2022-08-24T05:34:02;4.17;;;3.90;;
11735;SDS011;5924;51.398;7.088;2022-08-24T05:36:30;4.93;;;4.60;;
11735;SDS011;5924;51.398;7.088;2022-08-24T05:38:58;4.27;;;4.07;;
11735;SDS011;5924;51.398;7.088;2022-08-24T05:41:26;5.37;;;4.97;;
11735;SDS011;5924;51.398;7.088;2022-08-24T05:43:52;5.70;;;5.10;;
11735;SDS011;5924;51.398;7.088;2022-08-24T05:46:18;4.87;;;4.53;;
11735;SDS011;5924;51.398;7.088;2022-08-24T05:48:44;4.30;;;4.20;;
11735;SDS011;5924;51.398;7.088;2022-08-24T05:51:10;3.77;;;3.77;;
11735;SDS011;5924;51.398;7.088;2022-08-24T05:53:37;4.20;;;4.00;;
11735;SDS011;5924;51.398;7.088;2022-08-24T05:56:04;5.17;;;4.67;;
11735;SDS011;5924;51.398;7.088;2022-08-24T05:58:32;6.73;;;5.07;;
11735;SDS011;5924;51.398;7.088;2022-08-24T06:00:57;14.40;;;6.20;;
11735;SDS011;5924;51.398;7.088;2022-08-24T06:03:24;6.03;;;5.53;;
11735;SDS011;5924;51.398;7.088;2022-08-24T06:05:50;7.23;;;6.70;;
11735;SDS011;5924;51.398;7.088;2022-08-24T06:08:17;6.37;;;6.03;;
11735;SDS011;5924;51.398;7.088;2022-08-24T06:10:44;8.57;;;7.70;;
11735;SDS011;5924;51.398;7.088;2022-08-24T06:13:11;6.50;;;6.17;;
11735;SDS011;5924;51.398;7.088;2022-08-24T06:15:38;7.97;;;7.30;;
11735;SDS011;5924;51.398;7.088;2022-08-24T06:18:05;7.87;;;7.13;;
11735;SDS011;5924;51.398;7.088;2022-08-24T06:20:32;7.77;;;7.23;;
11735;SDS011;5924;51.398;7.088;2022-08-24T06:23:02;8.47;;;7.77;;
11735;SDS011;5924;51.398;7.088;2022-08-24T06:25:28;7.50;;;7.00;;
11735;SDS011;5924;51.398;7.088;2022-08-24T06:28:12;7.93;;;7.30;;
11735;SDS011;5924;51.398;7.088;2022-08-24T06:30:37;7.93;;;7.17;;
11735;SDS011;5924;51.398;7.088;2022-08-24T06:33:04;7.53;;;6.93;;
11735;SDS011;5924;51.398;7.088;2022-08-24T06:35:30;8.00;;;7.30;;
11735;SDS011;5924;51.398;7.088;2022-08-24T06:37:55;7.17;;;6.47;;
11735;SDS011;5924;51.398;7.088;2022-08-24T06:40:21;7.47;;;6.70;;
11735;SDS011;5924;51.398;7.088;2022-08-24T06:42:48;7.80;;;7.10;;
11735;SDS011;5924;51.398;7.088;2022-08-24T06:45:14;7.67;;;6.97;;
11735;SDS011;5924;51.398;7.088;2022-08-24T06:47:40;6.83;;;6.17;;
11735;SDS011;5924;51.398;7.088;2022-08-24T06:50:06;7.33;;;6.20;;
11735;SDS011;5924;51.398;7.088;2022-08-24T06:52:33;7.37;;;6.70;;
11735;SDS011;5924;51.398;7.088;2022-08-24T06:54:59;6.93;;;6.33;;
11735;SDS011;5924;51.398;7.088;2022-08-24T06:57:25;9.17;;;6.60;;
11735;SDS011;5924;51.398;7.088;2022-08-24T06:59:51;7.50;;;6.47;;
11735;SDS011;5924;51.398;7.088;2022-08-24T07:02:18;7.70;;;7.00;;
11735;SDS011;5924;51.398;7.088;2022-08-24T07:04:44;6.60;;;6.17;;
11735;SDS011;5924;51.398;7.088;2022-08-24T07:07:11;6.17;;;5.77;;
11735;SDS011;5924;51.398;7.088;2022-08-24T07:09:36;7.20;;;6.67;;
11735;SDS011;5924;51.398;7.088;2022-08-24T07:12:02;6.40;;;5.77;;
11735;SDS011;5924;51.398;7.088;2022-08-24T07:14:29;6.77;;;6.20;;
11735;SDS011;5924;51.398;7.088;2022-08-24T07:16:55;6.63;;;6.03;;
11735;SDS011;5924;51.398;7.088;2022-08-24T07:19:20;8.10;;;5.50;;
11735;SDS011;5924;51.398;7.088;2022-08-24T07:21:46;5.43;;;4.93;;
11735;SDS011;5924;51.398;7.088;2022-08-24T07:24:12;5.80;;;5.43;;
11735;SDS011;5924;51.398;7.088;2022-08-24T07:26:38;6.30;;;5.43;;
11735;SDS011;5924;51.398;7.088;2022-08-24T07:29:05;8.30;;;4.80;;
11735;SDS011;5924;51.398;7.088;2022-08-24T07:31:35;4.70;;;4.20;;
11735;SDS011;5924;51.398;7.088;2022-08-24T07:34:03;4.53;;;4.33;;
11735;SDS011;5924;51.398;7.088;2022-08-24T07:36:30;5.10;;;4.67;;
11735;SDS011;5924;51.398;7.088;2022-08-24T07:38:56;4.73;;;4.40;;
11735;SDS011;5924;51.398;7.088;2022-08-24T07:41:22;4.37;;;4.07;;
11735;SDS011;5924;51.398;7.088;2022-08-24T07:43:52;4.63;;;4.23;;
11735;SDS011;5924;51.398;7.088;2022-08-24T07:46:18;4.07;;;3.77;;
11735;SDS011;5924;51.398;7.088;2022-08-24T07:48:44;4.07;;;3.77;;
11735;SDS011;5924;51.398;7.088;2022-08-24T07:51:11;3.70;;;3.50;;
11735;SDS011;5924;51.398;7.088;2022-08-24T07:53:39;4.13;;;3.77;;
11735;SDS011;5924;51.398;7.088;2022-08-24T07:56:05;4.20;;;4.00;;
11735;SDS011;5924;51.398;7.088;2022-08-24T07:58:31;3.77;;;3.53;;
11735;SDS011;5924;51.398;7.088;2022-08-24T08:00:57;3.47;;;3.37;;
11735;SDS011;5924;51.398;7.088;2022-08-24T08:03:23;3.90;;;3.37;;
11735;SDS011;5924;51.398;7.088;2022-08-24T08:05:56;4.63;;;3.30;;
11735;SDS011;5924;51.398;7.088;2022-08-24T08:08:22;3.70;;;3.60;;
11735;SDS011;5924;51.398;7.088;2022-08-24T08:10:49;3.93;;;3.63;;
11735;SDS011;5924;51.398;7.088;2022-08-24T08:13:15;5.77;;;3.50;;
11735;SDS011;5924;51.398;7.088;2022-08-24T08:15:42;3.50;;;3.30;;
11735;SDS011;5924;51.398;7.088;2022-08-24T08:18:08;3.57;;;3.47;;
11735;SDS011;5924;51.398;7.088;2022-08-24T08:20:35;3.83;;;3.53;;
11735;SDS011;5924;51.398;7.088;2022-08-24T08:23:02;3.80;;;3.60;;
11735;SDS011;5924;51.398;7.088;2022-08-24T08:25:50;3.90;;;3.53;;
11735;SDS011;5924;51.398;7.088;2022-08-24T08:28:18;4.20;;;4.00;;
11735;SDS011;5924;51.398;7.088;2022-08-24T08:30:45;5.87;;;3.60;;
11735;SDS011;5924;51.398;7.088;2022-08-24T08:33:11;5.23;;;3.70;;
11735;SDS011;5924;51.398;7.088;2022-08-24T08:35:37;3.73;;;3.33;;
11735;SDS011;5924;51.398;7.088;2022-08-24T08:38:04;3.90;;;3.70;;
11735;SDS011;5924;51.398;7.088;2022-08-24T08:43:04;4.93;;;3.53;;
11735;SDS011;5924;51.398;7.088;2022-08-24T08:45:45;4.90;;;3.70;;
11735;SDS011;5924;51.398;7.088;2022-08-24T08:54:13;7.40;;;3.83;;
11735;SDS011;5924;51.398;7.088;2022-08-24T08:59:38;3.40;;;3.20;;
11735;SDS011;5924;51.398;7.088;2022-08-24T09:08:26;3.47;;;3.37;;
11735;SDS011;5924;51.398;7.088;2022-08-24T09:11:07;8.80;;;3.40;;
11735;SDS011;5924;51.398;7.088;2022-08-24T09:14:07;2.80;;;2.60;;
11735;SDS011;5924;51.398;7.088;2022-08-24T09:21:52;3.07;;;2.87;;
11735;SDS011;5924;51.398;7.088;2022-08-24T09:32:29;3.10;;;3.00;;
11735;SDS011;5924;51.398;7.088;2022-08-24T09:35:14;2.77;;;2.57;;
11735;SDS011;5924;51.398;7.088;2022-08-24T09:48:52;3.30;;;3.00;;
11735;SDS011;5924;51.398;7.088;2022-08-24T09:51:37;2.83;;;2.63;;
11735;SDS011;5924;51.398;7.088;2022-08-24T10:08:02;4.77;;;2.90;;
11735;SDS011;5924;51.398;7.088;2022-08-24T10:10:41;3.63;;;3.33;;
11735;SDS011;5924;51.398;7.088;2022-08-24T10:19:16;2.87;;;2.87;;
11735;SDS011;5924;51.398;7.088;2022-08-24T10:22:15;2.97;;;2.67;;
11735;SDS011;5924;51.398;7.088;2022-08-24T10:30:39;2.83;;;2.63;;
11735;SDS011;5924;51.398;7.088;2022-08-24T10:33:19;2.50;;;2.50;;
11735;SDS011;5924;51.398;7.088;2022-08-24T10:36:35;2.63;;;2.43;;
11735;SDS011;5924;51.398;7.088;2022-08-24T10:39:02;3.10;;;2.40;;
11735;SDS011;5924;51.398;7.088;2022-08-24T10:42:09;2.10;;;2.10;;
11735;SDS011;5924;51.398;7.088;2022-08-24T10:46:04;4.40;;;2.60;;
11735;SDS011;5924;51.398;7.088;2022-08-24T10:53:35;3.10;;;2.60;;
11735;SDS011;5924;51.398;7.088;2022-08-24T10:58:36;7.97;;;2.70;;
11735;SDS011;5924;51.398;7.088;2022-08-24T11:03:56;10.20;;;3.03;;
11735;SDS011;5924;51.398;7.088;2022-08-24T11:06:30;8.13;;;3.27;;
11735;SDS011;5924;51.398;7.088;2022-08-24T11:09:22;2.77;;;2.50;;
11735;SDS011;5924;51.398;7.088;2022-08-24T11:11:48;6.33;;;2.60;;
11735;SDS011;5924;51.398;7.088;2022-08-24T11:16:40;3.80;;;2.57;;
11735;SDS011;5924;51.398;7.088;2022-08-24T11:19:16;2.67;;;2.57;;
11735;SDS011;5924;51.398;7.088;2022-08-24T11:22:25;2.60;;;2.50;;
11735;SDS011;5924;51.398;7.088;2022-08-24T11:24:54;3.07;;;2.80;;
11735;SDS011;5924;51.398;7.088;2022-08-24T11:27:31;7.13;;;2.60;;
11735;SDS011;5924;51.398;7.088;2022-08-24T11:30:11;3.23;;;2.97;;
11735;SDS011;5924;51.398;7.088;2022-08-24T11:32:44;5.60;;;2.70;;
11735;SDS011;5924;51.398;7.088;2022-08-24T11:38:18;3.90;;;2.60;;
11735;SDS011;5924;51.398;7.088;2022-08-24T11:40:43;5.23;;;2.60;;
11735;SDS011;5924;51.398;7.088;2022-08-24T11:46:29;5.03;;;2.70;;
11735;SDS011;5924;51.398;7.088;2022-08-24T11:49:17;3.00;;;2.80;;
11735;SDS011;5924;51.398;7.088;2022-08-24T11:57:08;3.47;;;3.00;;
11735;SDS011;5924;51.398;7.088;2022-08-24T11:59:49;4.80;;;2.67;;
11735;SDS011;5924;51.398;7.088;2022-08-24T12:22:02;3.27;;;2.70;;
11735;SDS011;5924;51.398;7.088;2022-08-24T12:26:57;5.47;;;2.93;;
11735;SDS011;5924;51.398;7.088;2022-08-24T12:29:42;2.83;;;2.53;;
11735;SDS011;5924;51.398;7.088;2022-08-24T12:32:16;2.60;;;2.50;;
11735;SDS011;5924;51.398;7.088;2022-08-24T12:34:55;2.97;;;2.70;;
11735;SDS011;5924;51.398;7.088;2022-08-24T12:42:42;5.47;;;2.80;;
11735;SDS011;5924;51.398;7.088;2022-08-24T12:45:14;2.20;;;2.10;;
11735;SDS011;5924;51.398;7.088;2022-08-24T12:50:25;2.40;;;2.20;;
11735;SDS011;5924;51.398;7.088;2022-08-24T13:01:26;4.77;;;2.30;;
11735;SDS011;5924;51.398;7.088;2022-08-24T13:07:31;6.13;;;2.50;;
11735;SDS011;5924;51.398;7.088;2022-08-24T13:09:39;2.80;;;2.60;;
11735;SDS011;5924;51.398;7.088;2022-08-24T13:17:48;2.73;;;2.47;;
11735;SDS011;5924;51.398;7.088;2022-08-24T13:22:45;2.53;;;2.47;;
11735;SDS011;5924;51.398;7.088;2022-08-24T13:25:25;2.73;;;2.50;;
11735;SDS011;5924;51.398;7.088;2022-08-24T13:28:06;3.03;;;2.53;;
11735;SDS011;5924;51.398;7.088;2022-08-24T13:30:36;2.45;;;2.35;;
11735;SDS011;5924;51.398;7.088;2022-08-24T13:33:17;3.93;;;2.80;;
11735;SDS011;5924;51.398;7.088;2022-08-24T13:50:10;6.33;;;3.10;;
11735;SDS011;5924;51.398;7.088;2022-08-24T14:01:23;3.93;;;2.60;;
11735;SDS011;5924;51.398;7.088;2022-08-24T14:04:08;2.97;;;2.57;;
11735;SDS011;5924;51.398;7.088;2022-08-24T14:12:03;2.80;;;2.70;;
11735;SDS011;5924;51.398;7.088;2022-08-24T14:14:53;2.25;;;2.15;;
11735;SDS011;5924;51.398;7.088;2022-08-24T14:25:41;3.55;;;2.65;;
11735;SDS011;5924;51.398;7.088;2022-08-24T14:31:23;3.70;;;2.40;;
11735;SDS011;5924;51.398;7.088;2022-08-24T14:36:45;2.58;;;2.10;;
11735;SDS011;5924;51.398;7.088;2022-08-24T14:42:02;2.00;;;2.00;;
11735;SDS011;5924;51.398;7.088;2022-08-24T14:50:04;3.90;;;2.13;;
11735;SDS011;5924;51.398;7.088;2022-08-24T14:52:36;2.30;;;2.20;;
11735;SDS011;5924;51.398;7.088;2022-08-24T14:55:21;5.25;;;2.50;;
11735;SDS011;5924;51.398;7.088;2022-08-24T15:00:51;2.28;;;2.17;;
11735;SDS011;5924;51.398;7.088;2022-08-24T15:06:31;2.25;;;2.15;;
11735;SDS011;5924;51.398;7.088;2022-08-24T15:11:42;2.03;;;1.92;;
11735;SDS011;5924;51.398;7.088;2022-08-24T15:14:44;2.50;;;2.20;;
11735;SDS011;5924;51.398;7.088;2022-08-24T15:17:04;2.28;;;2.17;;
11735;SDS011;5924;51.398;7.088;2022-08-24T15:22:48;2.70;;;2.50;;
11735;SDS011;5924;51.398;7.088;2022-08-24T15:28:06;3.45;;;2.58;;
11735;SDS011;5924;51.398;7.088;2022-08-24T15:31:00;3.58;;;2.08;;
11735;SDS011;5924;51.398;7.088;2022-08-24T15:33:37;5.18;;;2.70;;
11735;SDS011;5924;51.398;7.088;2022-08-24T15:36:27;2.50;;;2.30;;
11735;SDS011;5924;51.398;7.088;2022-08-24T15:38:56;2.30;;;2.20;;
11735;SDS011;5924;51.398;7.088;2022-08-24T15:41:29;5.80;;;2.20;;
11735;SDS011;5924;51.398;7.088;2022-08-24T15:46:45;2.10;;;2.10;;
11735;SDS011;5924;51.398;7.088;2022-08-24T15:51:47;2.33;;;2.22;;
11735;SDS011;5924;51.398;7.088;2022-08-24T15:54:30;2.13;;;1.90;;
11735;SDS011;5924;51.398;7.088;2022-08-24T15:57:24;5.15;;;2.15;;
11735;SDS011;5924;51.398;7.088;2022-08-24T16:00:16;4.72;;;2.35;;
11735;SDS011;5924;51.398;7.088;2022-08-24T16:03:20;2.80;;;2.70;;
11735;SDS011;5924;51.398;7.088;2022-08-24T16:06:17;4.07;;;2.40;;
11735;SDS011;5924;51.398;7.088;2022-08-24T16:09:12;2.20;;;2.10;;
11735;SDS011;5924;51.398;7.088;2022-08-24T16:14:42;4.13;;;2.25;;
11735;SDS011;5924;51.398;7.088;2022-08-24T16:19:56;3.50;;;2.03;;
11735;SDS011;5924;51.398;7.088;2022-08-24T16:22:32;2.53;;;2.42;;
11735;SDS011;5924;51.398;7.088;2022-08-24T16:27:54;3.13;;;2.33;;
11735;SDS011;5924;51.398;7.088;2022-08-24T16:30:37;3.40;;;2.03;;
11735;SDS011;5924;51.398;7.088;2022-08-24T16:33:03;3.70;;;2.42;;
11735;SDS011;5924;51.398;7.088;2022-08-24T16:35:29;2.38;;;2.10;;
11735;SDS011;5924;51.398;7.088;2022-08-24T16:37:55;2.30;;;2.20;;
11735;SDS011;5924;51.398;7.088;2022-08-24T16:40:21;3.65;;;2.40;;
11735;SDS011;5924;51.398;7.088;2022-08-24T16:42:48;2.08;;;2.08;;
11735;SDS011;5924;51.398;7.088;2022-08-24T16:45:16;3.42;;;2.35;;
11735;SDS011;5924;51.398;7.088;2022-08-24T16:47:45;2.33;;;2.22;;
11735;SDS011;5924;51.398;7.088;2022-08-24T16:50:11;2.28;;;2.13;;
11735;SDS011;5924;51.398;7.088;2022-08-24T16:52:39;4.10;;;1.77;;
11735;SDS011;5924;51.398;7.088;2022-08-24T16:55:05;2.55;;;2.33;;
11735;SDS011;5924;51.398;7.088;2022-08-24T16:57:31;4.78;;;2.28;;
11735;SDS011;5924;51.398;7.088;2022-08-24T17:00:05;2.20;;;2.10;;
11735;SDS011;5924;51.398;7.088;2022-08-24T17:02:33;6.38;;;2.15;;
11735;SDS011;5924;51.398;7.088;2022-08-24T17:04:58;3.10;;;2.87;;
11735;SDS011;5924;51.398;7.088;2022-08-24T17:07:25;2.53;;;1.90;;
11735;SDS011;5924;51.398;7.088;2022-08-24T17:09:53;2.47;;;2.37;;
11735;SDS011;5924;51.398;7.088;2022-08-24T17:12:20;2.50;;;2.40;;
11735;SDS011;5924;51.398;7.088;2022-08-24T17:14:46;3.33;;;3.00;;
11735;SDS011;5924;51.398;7.088;2022-08-24T17:17:14;3.00;;;2.90;;
11735;SDS011;5924;51.398;7.088;2022-08-24T17:19:42;2.50;;;2.40;;
11735;SDS011;5924;51.398;7.088;2022-08-24T17:22:08;2.37;;;2.30;;
11735;SDS011;5924;51.398;7.088;2022-08-24T17:24:33;8.83;;;2.90;;
11735;SDS011;5924;51.398;7.088;2022-08-24T17:26:59;4.73;;;2.73;;
11735;SDS011;5924;51.398;7.088;2022-08-24T17:29:26;2.73;;;2.63;;
11735;SDS011;5924;51.398;7.088;2022-08-24T17:31:52;2.83;;;2.63;;
11735;SDS011;5924;51.398;7.088;2022-08-24T17:34:19;2.40;;;2.30;;
11735;SDS011;5924;51.398;7.088;2022-08-24T17:36:50;2.60;;;2.50;;
11735;SDS011;5924;51.398;7.088;2022-08-24T17:39:18;3.40;;;3.10;;
11735;SDS011;5924;51.398;7.088;2022-08-24T17:41:44;6.60;;;3.03;;
11735;SDS011;5924;51.398;7.088;2022-08-24T17:44:12;3.30;;;3.20;;
11735;SDS011;5924;51.398;7.088;2022-08-24T17:46:41;2.60;;;2.50;;
11735;SDS011;5924;51.398;7.088;2022-08-24T17:49:07;3.50;;;2.73;;
11735;SDS011;5924;51.398;7.088;2022-08-24T17:51:36;2.57;;;2.47;;
11735;SDS011;5924;51.398;7.088;2022-08-24T17:54:02;2.97;;;2.83;;
11735;SDS011;5924;51.398;7.088;2022-08-24T17:56:29;2.43;;;2.43;;
11735;SDS011;5924;51.398;7.088;2022-08-24T17:59:02;4.43;;;2.50;;
11735;SDS011;5924;51.398;7.088;2022-08-24T18:01:57;2.97;;;2.87;;
11735;SDS011;5924;51.398;7.088;2022-08-24T18:04:26;4.63;;;3.13;;
11735;SDS011;5924;51.398;7.088;2022-08-24T18:06:58;3.27;;;3.10;;
11735;SDS011;5924;51.398;7.088;2022-08-24T18:09:30;2.90;;;2.80;;
11735;SDS011;5924;51.398;7.088;2022-08-24T18:11:59;2.80;;;2.60;;
11735;SDS011;5924;51.398;7.088;2022-08-24T18:14:26;2.77;;;2.67;;
11735;SDS011;5924;51.398;7.088;2022-08-24T18:16:52;2.93;;;2.83;;
11735;SDS011;5924;51.398;7.088;2022-08-24T18:19:19;3.10;;;2.90;;
11735;SDS011;5924;51.398;7.088;2022-08-24T18:21:45;2.77;;;2.67;;
11735;SDS011;5924;51.398;7.088;2022-08-24T18:24:11;2.83;;;2.63;;
11735;SDS011;5924;51.398;7.088;2022-08-24T18:26:37;2.93;;;2.70;;
11735;SDS011;5924;51.398;7.088;2022-08-24T18:29:21;3.20;;;2.93;;
11735;SDS011;5924;51.398;7.088;2022-08-24T18:31:47;3.13;;;2.93;;
11735;SDS011;5924;51.398;7.088;2022-08-24T18:34:17;3.03;;;2.50;;
11735;SDS011;5924;51.398;7.088;2022-08-24T18:36:45;2.87;;;2.77;;
11735;SDS011;5924;51.398;7.088;2022-08-24T18:39:11;3.30;;;3.10;;
11735;SDS011;5924;51.398;7.088;2022-08-24T18:41:38;3.00;;;2.90;;
11735;SDS011;5924;51.398;7.088;2022-08-24T18:44:06;5.50;;;3.37;;
11735;SDS011;5924;51.398;7.088;2022-08-24T18:46:33;3.17;;;3.00;;
11735;SDS011;5924;51.398;7.088;2022-08-24T18:48:59;2.93;;;2.73;;
11735;SDS011;5924;51.398;7.088;2022-08-24T18:51:25;2.93;;;2.83;;
11735;SDS011;5924;51.398;7.088;2022-08-24T18:53:54;3.00;;;2.80;;
11735;SDS011;5924;51.398;7.088;2022-08-24T18:56:25;3.23;;;2.80;;
11735;SDS011;5924;51.398;7.088;2022-08-24T18:58:50;3.20;;;3.10;;
11735;SDS011;5924;51.398;7.088;2022-08-24T19:01:17;3.07;;;2.87;;
11735;SDS011;5924;51.398;7.088;2022-08-24T19:03:44;2.77;;;2.67;;
11735;SDS011;5924;51.398;7.088;2022-08-24T19:06:10;2.70;;;2.60;;
11735;SDS011;5924;51.398;7.088;2022-08-24T19:08:35;3.37;;;3.20;;